Western Oslo — LAJH7 — position and weather

sailwx.info

Track history (hours):
 
Tides and Currents Weather Stations Pressure Air Temp Water Temp Dewpoint Dewpoint Depression Visibility Wind Speed Wind Dir Waves Ship Positions

Western Oslo

Last reported at 2018-Jun-07 19:33 UTC. Time now 2018-Jun-20 20:34 UTC.
Position N 01°31' E 103°07'.
Warning: this ship's position is 13 days out of date.

Length 190 m; draft 11 m.

Type: Cargo ship. MMSI: 257460000.

Date/timePositionNaut miles runAvg speedWind from/ knotsBaromVisibWave heightAir tempDewpointWater temp
2018-Jun-07 19:33N 01°31' E 103°07'212.2
2018-Jun-07 19:21N 01°29' E 103°09'612.4
2018-Jun-07 18:50N 01°25' E 103°14'412.9
2018-Jun-07 18:30N 01°22' E 103°17'713.6
2018-Jun-07 17:59N 01°17' E 103°22'612.6
2018-Jun-07 17:30N 01°14' E 103°27'611.0
2018-Jun-07 17:00N 01°13' E 103°33'611.5
2018-Jun-07 16:28N 01°11' E 103°39'510.9
2018-Jun-07 16:00N 01°09' E 103°43'510.1
2018-Jun-07 15:30N 01°10' E 103°48'611.9
2018-Jun-07 14:59N 01°13' E 103°53'510.0
2018-Jun-07 14:29N 01°15' E 103°58'2 4.6
2018-Jun-07 14:00N 01°16' E 103°59'1 2.5
2018-Jun-07 13:30N 01°18' E 103°59'0 0.1
2018-Jun-07 12:59N 01°18' E 103°59'0 0.1
2018-Jun-07 12:29N 01°18' E 103°59'0 0.0
2018-Jun-07 11:44N 01°18' E 103°59'0 0.2
2018-Jun-07 11:20N 01°18' E 103°59'0 0.1
2018-Jun-07 10:56N 01°18' E 103°59'0 0.0
2018-Jun-07 10:29N 01°18' E 103°59'0 0.1
2018-Jun-07 09:59N 01°18' E 103°59'0 0.0
2018-Jun-07 09:29N 01°18' E 103°59'0 0.0
2018-Jun-07 08:53N 01°18' E 103°59'0 0.0
2018-Jun-07 08:30N 01°18' E 103°59'0 0.1
2018-Jun-07 07:47N 01°18' E 103°59'0 0.1
2018-Jun-07 07:11N 01°18' E 103°59'0 0.3
2018-Jun-07 06:59N 01°18' E 103°60'0 0.1
2018-Jun-07 06:23N 01°18' E 103°60'0 0.1
2018-Jun-07 05:56N 01°18' E 103°60'0 0.0
2018-Jun-07 05:29N 01°18' E 103°60'0 0.0
2018-Jun-07 04:59N 01°18' E 103°60'0 0.0
2018-Jun-07 04:21N 01°18' E 103°60'0 0.0
2018-Jun-07 03:59N 01°18' E 103°60'0 0.0
2018-Jun-07 03:29N 01°18' E 103°60'0 0.2
2018-Jun-07 02:57N 01°17' E 103°60'2 3.5
2018-Jun-07 02:30N 01°16' E 103°60'1 2.9
2018-Jun-07 02:00N 01°16' E 104°01'5 9.3
2018-Jun-07 01:30N 01°17' E 104°06'610.9
2018-Jun-07 00:59N 01°18' E 104°11'510.3
2018-Jun-07 00:30N 01°18' E 104°16'6 9.7
2018-Jun-06 23:51N 01°21' E 104°22'3 9.7
2018-Jun-06 23:30N 01°23' E 104°24'510.4
2018-Jun-06 22:59N 01°27' E 104°28'6 9.5
2018-Jun-06 22:23N 01°30' E 104°33'4 6.5
2018-Jun-06 21:49N 01°33' E 104°35'811.6
2018-Jun-06 21:10N 01°38' E 104°41'411.5
2018-Jun-06 20:49N 01°41' E 104°44'612.0
2018-Jun-06 20:21N 01°44' E 104°48'512.6
2018-Jun-06 19:57N 01°47' E 104°52'611.8
2018-Jun-06 19:28N 01°51' E 104°57'612.2
2018-Jun-06 19:00N 01°55' E 105°01'912.0
2018-Jun-06 18:16N 02°01' E 105°08'712.8
2018-Jun-06 17:42N 02°02' E 105°15'  
Track history (hours):
 
Tides and Currents Weather Stations Pressure Air Temp Water Temp Dewpoint Dewpoint Depression Visibility Wind Speed Wind Dir Waves Ship Positions

Western Oslo

Last reported at 2018-Jun-07 19:33 UTC. Time now 2018-Jun-20 20:34 UTC.
Position N 01°31' E 103°07'.
Warning: this ship's position is 13 days out of date.

Length 190 m; draft 11 m.

Type: Cargo ship. MMSI: 257460000.

Date/timePositionNaut miles runAvg speedWind from/ knotsBaromVisibWave heightAir tempDewpointWater temp
2018-Jun-07 19:33N 01°31' E 103°07'212.2
2018-Jun-07 19:21N 01°29' E 103°09'612.4
2018-Jun-07 18:50N 01°25' E 103°14'412.9
2018-Jun-07 18:30N 01°22' E 103°17'713.6
2018-Jun-07 17:59N 01°17' E 103°22'612.6
2018-Jun-07 17:30N 01°14' E 103°27'611.0
2018-Jun-07 17:00N 01°13' E 103°33'611.5
2018-Jun-07 16:28N 01°11' E 103°39'510.9
2018-Jun-07 16:00N 01°09' E 103°43'510.1
2018-Jun-07 15:30N 01°10' E 103°48'611.9
2018-Jun-07 14:59N 01°13' E 103°53'510.0
2018-Jun-07 14:29N 01°15' E 103°58'2 4.6
2018-Jun-07 14:00N 01°16' E 103°59'1 2.5
2018-Jun-07 13:30N 01°18' E 103°59'0 0.1
2018-Jun-07 12:59N 01°18' E 103°59'0 0.1
2018-Jun-07 12:29N 01°18' E 103°59'0 0.0
2018-Jun-07 11:44N 01°18' E 103°59'0 0.2
2018-Jun-07 11:20N 01°18' E 103°59'0 0.1
2018-Jun-07 10:56N 01°18' E 103°59'0 0.0
2018-Jun-07 10:29N 01°18' E 103°59'0 0.1
2018-Jun-07 09:59N 01°18' E 103°59'0 0.0
2018-Jun-07 09:29N 01°18' E 103°59'0 0.0
2018-Jun-07 08:53N 01°18' E 103°59'0 0.0
2018-Jun-07 08:30N 01°18' E 103°59'0 0.1
2018-Jun-07 07:47N 01°18' E 103°59'0 0.1
2018-Jun-07 07:11N 01°18' E 103°59'0 0.3
2018-Jun-07 06:59N 01°18' E 103°60'0 0.1
2018-Jun-07 06:23N 01°18' E 103°60'0 0.1
2018-Jun-07 05:56N 01°18' E 103°60'0 0.0
2018-Jun-07 05:29N 01°18' E 103°60'0 0.0
2018-Jun-07 04:59N 01°18' E 103°60'0 0.0
2018-Jun-07 04:21N 01°18' E 103°60'0 0.0
2018-Jun-07 03:59N 01°18' E 103°60'0 0.0
2018-Jun-07 03:29N 01°18' E 103°60'0 0.2
2018-Jun-07 02:57N 01°17' E 103°60'2 3.5
2018-Jun-07 02:30N 01°16' E 103°60'1 2.9
2018-Jun-07 02:00N 01°16' E 104°01'5 9.3
2018-Jun-07 01:30N 01°17' E 104°06'610.9
2018-Jun-07 00:59N 01°18' E 104°11'510.3
2018-Jun-07 00:30N 01°18' E 104°16'6 9.7
2018-Jun-06 23:51N 01°21' E 104°22'3 9.7
2018-Jun-06 23:30N 01°23' E 104°24'510.4
2018-Jun-06 22:59N 01°27' E 104°28'6 9.5
2018-Jun-06 22:23N 01°30' E 104°33'4 6.5
2018-Jun-06 21:49N 01°33' E 104°35'811.6
2018-Jun-06 21:10N 01°38' E 104°41'411.5
2018-Jun-06 20:49N 01°41' E 104°44'612.0
2018-Jun-06 20:21N 01°44' E 104°48'512.6
2018-Jun-06 19:57N 01°47' E 104°52'611.8
2018-Jun-06 19:28N 01°51' E 104°57'612.2
2018-Jun-06 19:00N 01°55' E 105°01'912.0
2018-Jun-06 18:16N 02°01' E 105°08'712.8
2018-Jun-06 17:42N 02°02' E 105°15'  

Dump ship's entire track history